Time;durP1;ratioP1;P1;durP2;ratioP2;P2;SDS_P1;SDS_P2;PMS_P1;PMS_P2;Temp;Humidity;BMP_temperature;BMP_pressure;BME280_temperature;BME280_humidity;BME280_pressure;Samples;Min_cycle;Max_cycle;Signal;HPM_P1;HPM_P2
2023/09/05 00:02:16;;;;;;;5.45;3.90;;;19.90;77.00;;;;;;5014432;28;20033;-53
2023/09/05 00:04:46;;;;;;;5.03;3.60;;;19.90;77.00;;;;;;5014002;28;20044;-52
2023/09/05 00:07:11;;;;;;;6.05;3.72;;;19.90;76.80;;;;;;5014399;28;20153;-51
2023/09/05 00:09:37;;;;;;;5.80;4.13;;;19.90;76.90;;;;;;5014064;28;20487;-53
2023/09/05 00:12:06;;;;;;;5.07;3.60;;;19.90;76.90;;;;;;5014007;28;20493;-53
2023/09/05 00:14:32;;;;;;;5.47;3.67;;;19.90;76.90;;;;;;5014003;28;20508;-53
2023/09/05 00:16:58;;;;;;;7.90;4.10;;;19.90;77.30;;;;;;5014208;28;20029;-52
2023/09/05 00:19:23;;;;;;;4.35;3.65;;;19.90;77.50;;;;;;5014102;28;20034;-53
2023/09/05 00:21:49;;;;;;;6.25;4.03;;;19.90;77.80;;;;;;4996184;28;20034;-53
2023/09/05 00:24:38;;;;;;;4.93;3.55;;;19.90;77.60;;;;;;5013631;28;20492;-49
2023/09/05 00:27:07;;;;;;;4.32;3.67;;;19.90;77.30;;;;;;5014047;28;20030;-51
2023/09/05 00:29:33;;;;;;;5.53;4.00;;;19.90;77.20;;;;;;5013896;28;20147;-52
2023/09/05 00:31:59;;;;;;;5.88;3.83;;;19.80;77.50;;;;;;5013896;28;20204;-52
2023/09/05 00:34:32;;;;;;;5.50;3.40;;;19.80;76.80;;;;;;5013517;28;20049;-51
2023/09/05 00:37:01;;;;;;;4.18;3.42;;;19.80;77.00;;;;;;5013771;28;20053;-53
2023/09/05 00:39:31;;;;;;;4.53;3.80;;;19.80;76.90;;;;;;5013717;28;20034;-52
2023/09/05 00:41:57;;;;;;;4.30;3.70;;;19.80;77.10;;;;;;5013372;28;20073;-52
2023/09/05 00:44:23;;;;;;;4.60;3.80;;;19.70;76.80;;;;;;5013313;28;20040;-53
2023/09/05 00:46:49;;;;;;;4.85;3.55;;;19.70;77.00;;;;;;5013548;28;20032;-50
2023/09/05 00:49:16;;;;;;;5.28;4.05;;;19.70;77.00;;;;;;5013157;28;20030;-51
2023/09/05 00:51:43;;;;;;;5.63;3.55;;;19.70;77.00;;;;;;5013254;28;20113;-52
2023/09/05 00:54:11;;;;;;;5.63;3.78;;;19.70;77.00;;;;;;5013147;28;20206;-53
2023/09/05 00:56:37;;;;;;;4.30;3.60;;;19.70;77.10;;;;;;5013378;28;20478;-53
2023/09/05 00:59:04;;;;;;;4.80;3.67;;;19.70;77.10;;;;;;5013119;28;20467;-53
2023/09/05 01:01:30;;;;;;;4.32;3.38;;;19.70;77.10;;;;;;5013155;28;20034;-53
2023/09/05 01:03:59;;;;;;;4.47;3.85;;;19.70;76.90;;;;;;5013176;28;20355;-53
2023/09/05 01:06:37;;;;;;;5.43;3.60;;;19.60;77.00;;;;;;5012851;28;20018;-51
2023/09/05 01:09:13;;;;;;;4.93;3.60;;;19.60;77.30;;;;;;5013034;28;20034;-53
2023/09/05 01:11:40;;;;;;;5.28;3.92;;;19.60;77.10;;;;;;5013322;28;20018;-52
2023/09/05 01:14:06;;;;;;;4.05;3.63;;;19.60;76.90;;;;;;5012911;28;20462;-53
2023/09/05 01:16:31;;;;;;;5.18;3.60;;;19.60;77.00;;;;;;5012946;28;20045;-52
2023/09/05 01:18:57;;;;;;;4.03;3.40;;;19.60;76.90;;;;;;5012792;28;20117;-53
2023/09/05 01:21:35;;;;;;;5.10;3.70;;;19.60;77.20;;;;;;5012222;28;20424;-54
2023/09/05 01:24:20;;;;;;;6.40;3.75;;;19.60;77.80;;;;;;5012564;28;20033;-53
2023/09/05 01:26:47;;;;;;;4.15;3.33;;;19.60;77.00;;;;;;5012471;28;20026;-54
2023/09/05 01:29:15;;;;;;;4.20;3.55;;;19.50;77.30;;;;;;5012622;28;20033;-53
2023/09/05 01:31:42;;;;;;;4.10;3.60;;;19.50;77.10;;;;;;5012717;28;20025;-52
2023/09/05 01:34:08;;;;;;;3.97;3.58;;;19.50;77.10;;;;;;5012585;28;20039;-50
2023/09/05 01:36:34;;;;;;;6.15;3.72;;;19.50;77.40;;;;;;5012588;28;20597;-51
2023/09/05 01:39:00;;;;;;;6.22;3.90;;;19.50;77.70;;;;;;5012427;28;20108;-51
2023/09/05 01:41:26;;;;;;;5.68;3.83;;;19.50;77.20;;;;;;5012552;28;20029;-52
2023/09/05 01:43:51;;;;;;;5.60;3.45;;;19.50;77.40;;;;;;5012358;28;20593;-53
2023/09/05 01:46:17;;;;;;;5.55;4.20;;;19.50;77.60;;;;;;5012165;28;20383;-52
2023/09/05 01:48:43;;;;;;;5.00;4.00;;;19.50;77.70;;;;;;5012227;28;20022;-53
2023/09/05 01:51:09;;;;;;;5.15;3.60;;;19.50;77.90;;;;;;5012088;28;20037;-52
2023/09/05 01:53:34;;;;;;;4.78;3.65;;;19.50;78.40;;;;;;5012030;28;20052;-52
2023/09/05 01:56:00;;;;;;;5.85;3.97;;;19.50;78.20;;;;;;5012122;28;20021;-54
2023/09/05 01:58:26;;;;;;;5.35;4.03;;;19.50;78.20;;;;;;5012096;28;20443;-52
2023/09/05 02:00:51;;;;;;;4.50;3.72;;;19.50;78.20;;;;;;5011974;28;20065;-54
2023/09/05 02:03:17;;;;;;;3.88;3.47;;;19.40;78.30;;;;;;5012181;28;20117;-53
2023/09/05 02:05:42;;;;;;;4.93;3.78;;;19.50;78.20;;;;;;5012140;28;20380;-54
2023/09/05 02:08:09;;;;;;;5.85;3.75;;;19.40;78.20;;;;;;5012000;28;20104;-52
2023/09/05 02:10:34;;;;;;;5.30;3.95;;;19.40;78.00;;;;;;5012384;28;20057;-53
2023/09/05 02:13:00;;;;;;;5.40;3.85;;;19.40;78.30;;;;;;5011767;28;20038;-51
2023/09/05 02:15:26;;;;;;;5.32;3.75;;;19.40;78.40;;;;;;5012034;28;20026;-53
2023/09/05 02:17:55;;;;;;;5.53;3.60;;;19.40;78.40;;;;;;5011832;28;20481;-53
2023/09/05 02:20:21;;;;;;;4.25;3.53;;;19.40;78.70;;;;;;5011905;28;20036;-49
2023/09/05 02:22:47;;;;;;;4.53;3.53;;;19.40;78.60;;;;;;5011700;28;20485;-54
2023/09/05 02:25:12;;;;;;;5.90;3.60;;;19.40;78.60;;;;;;5011695;28;20034;-53
2023/09/05 02:27:38;;;;;;;4.03;3.53;;;19.40;78.50;;;;;;5011709;28;20493;-52
2023/09/05 02:30:07;;;;;;;4.18;3.60;;;19.40;78.50;;;;;;5011584;28;20029;-53
2023/09/05 02:32:33;;;;;;;4.07;3.60;;;19.40;78.70;;;;;;5011491;28;20104;-53
2023/09/05 02:34:59;;;;;;;4.45;3.83;;;19.40;78.70;;;;;;5010951;28;20104;-52
2023/09/05 02:37:25;;;;;;;6.60;3.95;;;19.40;79.00;;;;;;5011997;28;20030;-52
2023/09/05 02:39:50;;;;;;;5.35;3.80;;;19.40;78.80;;;;;;5011677;28;20026;-51
2023/09/05 02:42:16;;;;;;;4.10;3.20;;;19.40;78.80;;;;;;5011532;28;20037;-53
2023/09/05 02:44:41;;;;;;;3.67;3.15;;;19.40;78.90;;;;;;5011354;28;20496;-53
2023/09/05 02:47:07;;;;;;;5.53;3.50;;;19.40;78.80;;;;;;5011632;28;20044;-54
2023/09/05 02:49:33;;;;;;;6.03;3.75;;;19.40;78.60;;;;;;5011391;28;20609;-53
2023/09/05 02:51:58;;;;;;;4.82;3.65;;;19.40;78.90;;;;;;5011541;28;20025;-51
2023/09/05 02:54:24;;;;;;;4.43;3.97;;;19.30;78.80;;;;;;5011236;28;20116;-52
2023/09/05 02:56:50;;;;;;;4.75;3.47;;;19.30;78.90;;;;;;5011377;28;20396;-52
2023/09/05 02:59:16;;;;;;;4.78;3.60;;;19.30;79.20;;;;;;5011258;28;20030;-52
2023/09/05 03:01:41;;;;;;;5.45;4.00;;;19.30;79.50;;;;;;5011306;28;20363;-52
2023/09/05 03:04:07;;;;;;;4.63;3.70;;;19.30;79.50;;;;;;5011310;28;20373;-52
2023/09/05 03:06:33;;;;;;;5.57;4.22;;;19.30;79.80;;;;;;5011488;28;20108;-53
2023/09/05 03:08:58;;;;;;;7.22;4.40;;;19.30;79.80;;;;;;5011145;28;20033;-52
2023/09/05 03:11:24;;;;;;;5.47;3.85;;;19.30;79.50;;;;;;5011243;28;20108;-52
2023/09/05 03:13:50;;;;;;;4.13;3.45;;;19.30;79.60;;;;;;5011176;28;20052;-54
2023/09/05 03:16:17;;;;;;;5.55;3.97;;;19.20;79.50;;;;;;5011371;28;20105;-50
2023/09/05 03:18:44;;;;;;;4.30;3.90;;;19.20;79.80;;;;;;5011236;28;20522;-54
2023/09/05 03:21:10;;;;;;;6.40;4.28;;;19.20;79.70;;;;;;5011377;28;20030;-54
2023/09/05 03:23:36;;;;;;;5.38;3.70;;;19.20;79.90;;;;;;5011231;28;20034;-49
2023/09/05 03:26:01;;;;;;;5.07;4.40;;;19.20;80.10;;;;;;5011122;28;20036;-50
2023/09/05 03:28:41;;;;;;;6.47;4.63;;;19.20;79.80;;;;;;5011149;28;20097;-52
2023/09/05 03:31:07;;;;;;;6.35;4.43;;;19.20;79.70;;;;;;5011012;28;20041;-52
2023/09/05 03:33:33;;;;;;;5.93;4.70;;;19.20;79.90;;;;;;5011263;28;20034;-53
2023/09/05 03:35:58;;;;;;;5.20;3.67;;;19.20;79.90;;;;;;5011265;28;20482;-54
2023/09/05 03:38:24;;;;;;;5.63;4.20;;;19.20;80.20;;;;;;5010846;28;20026;-52
2023/09/05 03:40:49;;;;;;;5.38;3.58;;;19.20;80.30;;;;;;4993323;28;20034;-53
2023/09/05 03:43:15;;;;;;;5.45;4.32;;;19.20;80.30;;;;;;5010887;28;20030;-52
2023/09/05 03:45:41;;;;;;;4.25;3.85;;;19.20;80.20;;;;;;5012997;28;20113;-52
2023/09/05 03:48:06;;;;;;;5.63;4.18;;;19.20;80.30;;;;;;5014819;28;20028;-52
2023/09/05 03:50:32;;;;;;;4.68;3.78;;;19.20;80.40;;;;;;5014715;28;20029;-52
2023/09/05 03:52:58;;;;;;;4.68;3.85;;;19.20;80.40;;;;;;5014607;28;20104;-49
2023/09/05 03:55:23;;;;;;;7.30;4.20;;;19.20;80.60;;;;;;5014497;28;20046;-54
2023/09/05 03:57:49;;;;;;;5.78;4.18;;;19.20;81.10;;;;;;5014529;28;20120;-54
2023/09/05 04:00:15;;;;;;;5.75;4.28;;;19.20;80.60;;;;;;5014428;28;20481;-53
2023/09/05 04:02:41;;;;;;;4.13;3.67;;;19.20;80.70;;;;;;5014361;28;20040;-53
2023/09/05 04:05:07;;;;;;;4.53;3.95;;;19.20;80.80;;;;;;5014708;28;20044;-53
2023/09/05 04:07:34;;;;;;;6.03;4.20;;;19.20;80.40;;;;;;5014209;28;20033;-54
2023/09/05 04:10:00;;;;;;;4.38;3.58;;;19.30;80.40;;;;;;5014321;28;20064;-52
2023/09/05 04:12:25;;;;;;;4.13;3.55;;;19.30;80.60;;;;;;5014304;28;20083;-54
2023/09/05 04:14:51;;;;;;;4.43;3.40;;;19.30;80.70;;;;;;5014030;28;20101;-54
2023/09/05 04:17:17;;;;;;;5.78;3.88;;;19.30;80.80;;;;;;5013631;28;20105;-53
2023/09/05 04:19:42;;;;;;;6.88;3.72;;;19.40;80.60;;;;;;5013326;28;20080;-53
2023/09/05 04:22:08;;;;;;;4.55;3.85;;;19.40;80.80;;;;;;5014037;28;20034;-54
2023/09/05 04:24:33;;;;;;;6.07;4.00;;;19.40;80.50;;;;;;5014033;28;20069;-52
2023/09/05 04:26:59;;;;;;;4.30;3.83;;;19.40;80.40;;;;;;5013793;28;20034;-51
2023/09/05 04:29:25;;;;;;;4.63;3.80;;;19.40;80.20;;;;;;5011265;28;20380;-52
2023/09/05 04:31:51;;;;;;;4.22;3.80;;;19.50;80.10;;;;;;5011917;28;20075;-55
2023/09/05 04:34:17;;;;;;;5.82;4.00;;;19.50;79.90;;;;;;4994223;28;20034;-58
2023/09/05 04:36:42;;;;;;;4.20;3.65;;;19.50;79.90;;;;;;5013311;28;20030;-54
2023/09/05 04:39:08;;;;;;;5.38;3.90;;;19.50;80.00;;;;;;5012487;28;20374;-54
2023/09/05 04:41:34;;;;;;;4.97;4.10;;;19.60;80.00;;;;;;5013088;28;20508;-56
2023/09/05 04:43:59;;;;;;;4.32;3.65;;;19.60;80.00;;;;;;5012894;28;20034;-55
2023/09/05 04:46:27;;;;;;;4.20;3.65;;;19.60;79.60;;;;;;5013236;28;20486;-55
2023/09/05 04:48:53;;;;;;;8.55;3.75;;;19.70;79.70;;;;;;5013133;28;20493;-55
2023/09/05 04:51:19;;;;;;;4.22;3.55;;;19.70;79.60;;;;;;5012600;28;20040;-56
2023/09/05 04:53:44;;;;;;;5.25;4.20;;;19.70;79.40;;;;;;5012919;28;20486;-55
2023/09/05 04:56:10;;;;;;;5.00;4.05;;;19.80;79.10;;;;;;5010993;28;20480;-54
2023/09/05 04:58:36;;;;;;;4.85;3.80;;;19.80;79.00;;;;;;5012652;28;20421;-55
2023/09/05 05:01:02;;;;;;;4.95;4.20;;;19.90;79.00;;;;;;5012314;28;20101;-54
2023/09/05 05:03:32;;;;;;;5.55;4.00;;;20.00;78.70;;;;;;5013461;28;20085;-55
2023/09/05 05:05:59;;;;;;;5.57;3.63;;;20.10;78.20;;;;;;5013342;28;20029;-55
2023/09/05 05:08:24;;;;;;;4.30;3.60;;;20.20;78.10;;;;;;5012318;28;20026;-55
2023/09/05 05:10:50;;;;;;;5.20;4.07;;;20.30;77.70;;;;;;5013076;28;20037;-56
2023/09/05 05:13:16;;;;;;;5.43;3.60;;;20.30;77.10;;;;;;5012238;28;20474;-55
2023/09/05 05:15:45;;;;;;;4.45;3.60;;;20.30;77.30;;;;;;5012152;28;20109;-55
2023/09/05 05:18:11;;;;;;;6.40;3.83;;;20.30;77.10;;;;;;5012736;28;20073;-55
2023/09/05 05:20:37;;;;;;;4.70;3.92;;;20.30;77.10;;;;;;5013169;28;20033;-55
2023/09/05 05:23:04;;;;;;;4.60;3.92;;;20.20;77.20;;;;;;5013230;28;20049;-55
2023/09/05 05:25:30;;;;;;;3.88;3.47;;;20.30;77.30;;;;;;5013184;28;20033;-55
2023/09/05 05:27:55;;;;;;;5.07;3.83;;;20.30;77.50;;;;;;5012775;28;20014;-55
2023/09/05 05:30:21;;;;;;;4.60;3.97;;;20.40;77.20;;;;;;5012787;28;20076;-54
2023/09/05 05:32:47;;;;;;;4.88;3.90;;;20.40;76.90;;;;;;5012648;28;20033;-54
2023/09/05 05:35:13;;;;;;;5.45;4.00;;;20.50;77.00;;;;;;5012470;28;20026;-55
2023/09/05 05:37:38;;;;;;;5.93;3.78;;;20.50;76.90;;;;;;5012207;28;20548;-55
2023/09/05 05:40:05;;;;;;;5.53;4.00;;;20.60;76.80;;;;;;5012424;28;20025;-54
2023/09/05 05:42:31;;;;;;;5.55;3.88;;;20.80;76.40;;;;;;5012207;28;20037;-53
2023/09/05 05:44:56;;;;;;;4.28;3.60;;;21.10;75.40;;;;;;5012140;28;20039;-55
2023/09/05 05:47:22;;;;;;;4.88;3.78;;;21.30;74.60;;;;;;5012752;28;20354;-55
2023/09/05 05:49:48;;;;;;;4.40;3.70;;;21.50;73.60;;;;;;5011723;28;20030;-54
2023/09/05 05:52:14;;;;;;;4.22;3.70;;;21.70;72.70;;;;;;5012014;28;20037;-55
2023/09/05 05:54:39;;;;;;;5.10;3.70;;;21.70;72.60;;;;;;5011531;28;20046;-54
2023/09/05 05:57:05;;;;;;;4.40;3.78;;;21.70;72.70;;;;;;5012103;28;20036;-54
2023/09/05 05:59:30;;;;;;;4.53;3.42;;;21.60;72.70;;;;;;5011821;28;20042;-54
2023/09/05 06:01:57;;;;;;;4.32;3.55;;;21.50;73.00;;;;;;5012028;28;20049;-55
2023/09/05 06:04:24;;;;;;;4.57;3.70;;;21.50;73.30;;;;;;5012151;28;20029;-55
2023/09/05 06:06:50;;;;;;;4.20;3.55;;;21.40;73.50;;;;;;5012452;28;20026;-55
2023/09/05 06:09:19;;;;;;;4.30;3.78;;;21.40;73.80;;;;;;5011856;28;20051;-54
2023/09/05 06:11:46;;;;;;;3.95;3.55;;;21.40;73.60;;;;;;5012322;28;20037;-55
2023/09/05 06:14:13;;;;;;;4.15;3.75;;;21.40;73.90;;;;;;5012315;28;20112;-55
2023/09/05 06:16:39;;;;;;;4.50;3.65;;;21.40;73.40;;;;;;5012187;28;20537;-54
2023/09/05 06:19:07;;;;;;;5.78;3.60;;;21.40;73.50;;;;;;5012152;28;20105;-55
2023/09/05 06:21:32;;;;;;;4.72;3.65;;;21.40;73.30;;;;;;5011849;28;20577;-55
2023/09/05 06:23:58;;;;;;;4.32;3.75;;;21.50;73.40;;;;;;5012234;28;20109;-55
2023/09/05 06:26:24;;;;;;;4.45;3.55;;;21.50;73.60;;;;;;5012300;28;20113;-55
2023/09/05 06:28:51;;;;;;;5.35;4.10;;;21.50;73.40;;;;;;5012027;28;20434;-53
2023/09/05 06:31:17;;;;;;;4.50;3.83;;;21.60;73.30;;;;;;5012188;28;20113;-53
2023/09/05 06:33:42;;;;;;;4.68;3.60;;;21.60;73.30;;;;;;5011994;28;20452;-55
2023/09/05 06:36:11;;;;;;;5.20;3.58;;;21.70;73.30;;;;;;5011772;28;20109;-54
2023/09/05 06:38:36;;;;;;;5.20;3.60;;;21.70;73.20;;;;;;4994207;28;20033;-55
2023/09/05 06:41:10;;;;;;;4.15;3.33;;;21.80;73.00;;;;;;5011693;28;20021;-54
2023/09/05 06:43:36;;;;;;;4.85;3.60;;;21.80;72.70;;;;;;5012214;28;20025;-55
2023/09/05 06:46:06;;;;;;;4.45;4.05;;;21.90;72.80;;;;;;5011560;28;20056;-55
2023/09/05 06:48:34;;;;;;;3.90;3.50;;;21.90;72.30;;;;;;5011633;28;20030;-54
2023/09/05 06:50:59;;;;;;;4.80;3.80;;;22.00;72.30;;;;;;5011326;28;20030;-55
2023/09/05 06:53:28;;;;;;;4.78;4.00;;;22.00;72.10;;;;;;5011654;28;20034;-55
2023/09/05 06:55:54;;;;;;;4.30;3.85;;;22.00;72.20;;;;;;5011432;28;20045;-55
2023/09/05 06:58:23;;;;;;;4.88;4.25;;;22.10;72.30;;;;;;5010897;28;20394;-55
2023/09/05 07:00:53;;;;;;;5.05;3.90;;;22.10;72.00;;;;;;5011693;28;20033;-54
2023/09/05 07:03:23;;;;;;;5.63;3.80;;;22.20;71.70;;;;;;5011860;28;20026;-55
2023/09/05 07:05:49;;;;;;;5.68;4.43;;;22.20;72.00;;;;;;5011652;28;20029;-55
2023/09/05 07:08:14;;;;;;;4.80;3.67;;;22.20;72.00;;;;;;5010544;28;20493;-54
2023/09/05 07:10:40;;;;;;;4.82;3.70;;;22.20;71.70;;;;;;5010731;28;20022;-55
2023/09/05 07:13:06;;;;;;;4.20;3.80;;;22.30;71.80;;;;;;5011002;28;20034;-55
2023/09/05 07:15:31;;;;;;;4.25;3.65;;;22.30;71.60;;;;;;5011118;28;20547;-55
2023/09/05 07:17:57;;;;;;;4.22;3.80;;;22.40;71.50;;;;;;5011314;28;20060;-55
2023/09/05 07:20:24;;;;;;;4.88;4.03;;;22.40;72.20;;;;;;5013081;28;20029;-55
2023/09/05 07:22:49;;;;;;;4.45;3.90;;;22.40;71.50;;;;;;5015328;28;20060;-55
2023/09/05 07:25:15;;;;;;;4.65;3.60;;;22.50;71.40;;;;;;5013815;28;20017;-55
2023/09/05 07:27:41;;;;;;;4.80;3.50;;;22.50;71.30;;;;;;5010296;28;20524;-55
2023/09/05 07:30:07;;;;;;;4.82;4.10;;;22.50;71.00;;;;;;5011822;28;20155;-55
2023/09/05 07:32:33;;;;;;;5.15;3.78;;;22.60;71.00;;;;;;5013916;28;20026;-55
2023/09/05 07:34:59;;;;;;;4.97;3.85;;;22.60;71.20;;;;;;5014227;28;20083;-55
2023/09/05 07:37:25;;;;;;;4.93;3.80;;;22.60;70.90;;;;;;5014083;28;20441;-54
2023/09/05 07:39:52;;;;;;;4.72;3.67;;;22.60;70.90;;;;;;5014661;28;20022;-55
2023/09/05 07:42:18;;;;;;;5.38;3.85;;;22.70;70.90;;;;;;5012776;28;20030;-54
2023/09/05 07:44:43;;;;;;;6.07;3.50;;;22.70;71.00;;;;;;5013673;28;20042;-55
2023/09/05 07:47:09;;;;;;;4.55;3.40;;;22.80;70.80;;;;;;5011712;28;20029;-55
2023/09/05 07:49:36;;;;;;;4.25;3.70;;;22.80;70.60;;;;;;5011688;28;20029;-54
2023/09/05 07:52:01;;;;;;;4.45;3.70;;;22.80;70.70;;;;;;5013961;28;20105;-55
2023/09/05 07:54:27;;;;;;;3.72;3.22;;;22.90;70.60;;;;;;5013045;28;20128;-54
2023/09/05 07:56:53;;;;;;;5.95;3.70;;;22.90;70.30;;;;;;5012677;28;20501;-54
2023/09/05 07:59:19;;;;;;;4.75;3.65;;;22.80;70.10;;;;;;5011997;28;20156;-55
2023/09/05 08:01:45;;;;;;;4.97;3.63;;;22.90;69.90;;;;;;5012191;28;20042;-54
2023/09/05 08:04:10;;;;;;;5.40;4.32;;;22.90;70.00;;;;;;5012691;28;20383;-53
2023/09/05 08:06:36;;;;;;;4.80;3.50;;;22.90;69.80;;;;;;5013481;28;20030;-54
2023/09/05 08:09:01;;;;;;;3.55;3.25;;;22.90;69.80;;;;;;5012323;28;20540;-53
2023/09/05 08:11:27;;;;;;;4.97;4.00;;;22.90;69.60;;;;;;5012187;28;20054;-53
2023/09/05 08:13:53;;;;;;;4.22;3.35;;;22.90;69.50;;;;;;4997445;28;20038;-54
2023/09/05 08:16:19;;;;;;;4.78;3.70;;;22.90;69.40;;;;;;5028176;28;20089;-54
2023/09/05 08:18:45;;;;;;;4.80;4.07;;;22.90;69.50;;;;;;5011004;28;20113;-54
2023/09/05 08:21:10;;;;;;;3.97;3.58;;;22.90;69.60;;;;;;5013134;28;20400;-55
2023/09/05 08:23:36;;;;;;;4.85;3.72;;;22.90;69.60;;;;;;5013480;28;20036;-53
2023/09/05 08:26:02;;;;;;;4.55;3.65;;;22.90;69.40;;;;;;5011985;28;20064;-55
2023/09/05 08:28:32;;;;;;;5.28;3.88;;;22.90;69.70;;;;;;5013731;28;20113;-55
2023/09/05 08:30:59;;;;;;;4.07;3.60;;;22.90;69.60;;;;;;5000736;28;20027;-55
2023/09/05 08:33:26;;;;;;;4.88;3.75;;;22.90;70.30;;;;;;5013437;28;20046;-51
2023/09/05 08:35:52;;;;;;;4.80;3.50;;;22.90;69.30;;;;;;5012941;28;20037;-51
2023/09/05 08:38:18;;;;;;;3.55;3.15;;;22.90;69.60;;;;;;5012598;28;20386;-55
2023/09/05 08:40:47;;;;;;;4.78;3.30;;;22.90;69.30;;;;;;5012544;28;20033;-54
2023/09/05 08:43:16;;;;;;;6.05;3.67;;;23.00;70.20;;;;;;5005898;28;20558;-55
2023/09/05 08:45:45;;;;;;;4.13;3.58;;;23.00;69.70;;;;;;5009843;28;20032;-51
2023/09/05 08:48:11;;;;;;;5.57;3.75;;;23.00;69.70;;;;;;5011236;28;20121;-55
2023/09/05 08:50:39;;;;;;;4.18;3.20;;;23.00;69.40;;;;;;5012197;28;20481;-53
2023/09/05 08:53:11;;;;;;;6.05;3.90;;;23.00;69.10;;;;;;5011164;28;20026;-55
2023/09/05 08:55:40;;;;;;;4.88;3.17;;;23.00;69.90;;;;;;5008558;28;20042;-53
2023/09/05 08:58:15;;;;;;;5.55;3.53;;;23.10;69.90;;;;;;4993022;28;20437;-54
2023/09/05 09:00:43;;;;;;;4.32;3.55;;;23.00;69.60;;;;;;5007847;28;20462;-55
2023/09/05 09:03:09;;;;;;;4.25;3.55;;;23.10;69.20;;;;;;5011836;28;20040;-54
2023/09/05 09:05:36;;;;;;;5.40;4.20;;;23.00;69.10;;;;;;5002611;28;20478;-54
2023/09/05 09:08:03;;;;;;;5.50;3.90;;;23.10;69.10;;;;;;5010448;28;20018;-55
2023/09/05 09:10:29;;;;;;;5.63;3.50;;;23.00;68.50;;;;;;5012080;28;20037;-53
2023/09/05 09:13:13;;;;;;;5.07;3.30;;;23.00;67.90;;;;;;5012545;28;20026;-55
2023/09/05 09:15:42;;;;;;;4.45;3.35;;;23.00;68.20;;;;;;5008740;28;20069;-55
2023/09/05 09:18:12;;;;;;;4.70;3.70;;;23.10;68.40;;;;;;5009945;28;20472;-54
2023/09/05 09:20:44;;;;;;;4.15;3.40;;;23.10;68.20;;;;;;5008496;28;20030;-54
2023/09/05 09:23:10;;;;;;;3.88;3.47;;;23.10;67.70;;;;;;5011117;28;20018;-54
2023/09/05 09:25:45;;;;;;;5.47;3.08;;;23.10;67.60;;;;;;5005994;28;20551;-55
2023/09/05 09:28:20;;;;;;;6.32;3.90;;;23.10;66.50;;;;;;5011169;28;20394;-55
2023/09/05 09:30:48;;;;;;;3.72;3.30;;;23.20;66.20;;;;;;5005969;28;22110;-55
2023/09/05 09:33:14;;;;;;;5.70;3.30;;;23.20;66.70;;;;;;5006875;28;20033;-55
2023/09/05 09:35:40;;;;;;;4.25;3.08;;;23.20;66.70;;;;;;5010939;28;20046;-54
2023/09/05 09:38:05;;;;;;;3.63;3.22;;;23.20;66.40;;;;;;5008667;28;20161;-55
2023/09/05 09:40:37;;;;;;;4.20;3.03;;;23.20;65.70;;;;;;5010186;28;20033;-55
2023/09/05 09:43:03;;;;;;;4.53;3.40;;;23.20;65.30;;;;;;5006116;28;20116;-54
2023/09/05 09:45:32;;;;;;;5.05;3.20;;;23.20;64.80;;;;;;5009594;28;20156;-55
2023/09/05 09:48:00;;;;;;;3.90;3.17;;;23.20;65.20;;;;;;5008734;28;20072;-52
2023/09/05 09:50:26;;;;;;;4.10;3.42;;;23.30;65.40;;;;;;5005958;28;20113;-55
2023/09/05 09:52:58;;;;;;;4.90;2.90;;;23.30;65.00;;;;;;5011118;28;20064;-55
2023/09/05 09:55:27;;;;;;;8.00;3.53;;;23.30;64.60;;;;;;4999509;28;20501;-55
2023/09/05 09:57:57;;;;;;;5.15;3.35;;;23.30;64.20;;;;;;5003187;28;20496;-55
2023/09/05 10:00:24;;;;;;;5.75;3.50;;;23.30;64.40;;;;;;5007106;28;20030;-55
2023/09/05 10:02:50;;;;;;;5.18;3.60;;;23.30;64.70;;;;;;5002880;28;20423;-55
2023/09/05 10:05:19;;;;;;;4.38;3.10;;;23.30;64.00;;;;;;5004884;28;20026;-54
2023/09/05 10:07:48;;;;;;;3.88;3.38;;;23.40;64.30;;;;;;5000992;28;20022;-55
2023/09/05 10:10:16;;;;;;;4.75;3.30;;;23.40;65.00;;;;;;5003889;28;20072;-55
2023/09/05 10:12:46;;;;;;;4.50;3.17;;;23.40;65.10;;;;;;5005149;28;20026;-55
2023/09/05 10:15:13;;;;;;;3.95;3.33;;;23.40;65.50;;;;;;5009060;28;20076;-54
2023/09/05 10:17:41;;;;;;;5.65;3.55;;;23.50;65.00;;;;;;5009471;28;20041;-55
2023/09/05 10:20:07;;;;;;;3.90;3.25;;;23.50;64.70;;;;;;5010652;28;20108;-55
2023/09/05 10:22:43;;;;;;;4.43;3.35;;;23.50;64.80;;;;;;5004351;28;20037;-55
2023/09/05 10:25:11;;;;;;;5.63;3.03;;;23.50;65.40;;;;;;5008563;28;20117;-54
2023/09/05 10:27:37;;;;;;;6.03;3.63;;;23.60;64.90;;;;;;5010037;28;20113;-53
2023/09/05 10:30:03;;;;;;;4.82;3.28;;;23.60;65.50;;;;;;5008024;28;20113;-55
2023/09/05 10:32:31;;;;;;;6.47;3.72;;;23.60;65.40;;;;;;5010936;28;20430;-54
2023/09/05 10:35:04;;;;;;;5.15;3.42;;;23.60;65.30;;;;;;5005681;28;20466;-55
2023/09/05 10:37:39;;;;;;;6.28;3.40;;;23.60;64.80;;;;;;5008256;28;20283;-53
2023/09/05 10:40:08;;;;;;;3.70;3.13;;;23.70;64.20;;;;;;5001075;28;20344;-53
2023/09/05 10:42:41;;;;;;;6.63;3.60;;;23.70;64.10;;;;;;4984146;28;20576;-54
2023/09/05 10:45:22;;;;;;;4.43;3.22;;;23.70;64.00;;;;;;5004034;28;20026;-55
2023/09/05 10:47:49;;;;;;;5.85;3.67;;;23.70;63.90;;;;;;5007117;28;20394;-55
2023/09/05 10:50:22;;;;;;;6.05;3.72;;;23.70;64.30;;;;;;5007202;28;20018;-54
2023/09/05 10:53:11;;;;;;;6.40;3.70;;;23.80;64.20;;;;;;5002487;28;20054;-54
2023/09/05 10:55:50;;;;;;;4.80;3.40;;;23.80;64.60;;;;;;4991950;28;20050;-55
2023/09/05 10:58:56;;;;;;;5.13;3.40;;;23.80;64.70;;;;;;5009269;28;20112;-55
2023/09/05 11:01:29;;;;;;;5.25;3.63;;;23.90;64.20;;;;;;5003441;28;20061;-55
2023/09/05 11:03:55;;;;;;;5.07;3.33;;;24.00;64.80;;;;;;5007391;28;20505;-54
2023/09/05 11:06:22;;;;;;;4.07;3.53;;;24.00;63.80;;;;;;5010159;28;20108;-55
2023/09/05 11:09:04;;;;;;;4.00;3.35;;;24.00;63.40;;;;;;5008868;28;20026;-54
2023/09/05 11:11:37;;;;;;;4.95;3.20;;;24.10;63.70;;;;;;5014291;28;20479;-55
2023/09/05 11:14:06;;;;;;;4.07;3.33;;;24.10;63.70;;;;;;5009776;28;20030;-54
2023/09/05 11:16:47;;;;;;;4.18;3.22;;;24.10;63.10;;;;;;5008962;28;20069;-55
2023/09/05 11:19:29;;;;;;;3.60;3.10;;;24.10;63.20;;;;;;5009504;28;20096;-55
2023/09/05 11:22:22;;;;;;;4.32;3.30;;;24.20;63.50;;;;;;4993758;28;20040;-53
2023/09/05 11:24:52;;;;;;;4.43;3.42;;;24.20;63.20;;;;;;5007735;28;20028;-55
2023/09/05 11:27:19;;;;;;;;;;;24.30;63.30;;;;;;5009018;28;20072;-55
2023/09/05 11:29:45;;;;;;;3.58;3.03;;;24.30;63.30;;;;;;5008383;28;20004;-55
2023/09/05 11:32:13;;;;;;;3.60;3.00;;;24.30;63.90;;;;;;5011342;28;20026;-55
2023/09/05 11:34:43;;;;;;;4.75;3.20;;;24.30;63.10;;;;;;5008141;28;20034;-55
2023/09/05 11:37:13;;;;;;;4.43;3.13;;;24.40;62.30;;;;;;5009969;28;20030;-56
2023/09/05 11:39:39;;;;;;;5.63;3.15;;;24.40;62.10;;;;;;5009949;28;20847;-55
2023/09/05 11:42:32;;;;;;;4.53;3.08;;;24.40;61.60;;;;;;5009084;28;20032;-55
2023/09/05 11:44:59;;;;;;;4.53;3.35;;;24.40;61.50;;;;;;5006853;28;20030;-55
2023/09/05 11:47:26;;;;;;;4.78;3.00;;;24.40;61.90;;;;;;5014274;28;20014;-53
2023/09/05 11:49:57;;;;;;;5.32;3.60;;;24.40;62.30;;;;;;5013719;28;20034;-52
2023/09/05 11:52:23;;;;;;;5.47;3.30;;;24.50;62.30;;;;;;5014179;28;20033;-54
2023/09/05 11:54:51;;;;;;;3.65;3.08;;;24.50;62.40;;;;;;5012160;28;20042;-55
2023/09/05 11:57:19;;;;;;;5.63;3.30;;;24.50;62.20;;;;;;5009074;28;20481;-55
2023/09/05 11:59:46;;;;;;;3.95;3.20;;;24.60;62.10;;;;;;5008404;28;20026;-55
2023/09/05 12:02:15;;;;;;;5.07;3.45;;;24.60;61.80;;;;;;5008630;28;20037;-55
2023/09/05 12:04:42;;;;;;;4.30;3.13;;;24.60;61.70;;;;;;5003776;28;20029;-56
2023/09/05 12:07:08;;;;;;;3.95;3.33;;;24.60;62.40;;;;;;5009119;28;20064;-52
2023/09/05 12:09:34;;;;;;;4.18;3.25;;;24.70;62.40;;;;;;5003207;28;20088;-52
2023/09/05 12:12:15;;;;;;;3.88;3.20;;;24.70;62.20;;;;;;5005488;28;20474;-49
2023/09/05 12:14:59;;;;;;;5.10;3.42;;;24.80;62.60;;;;;;5019939;28;20168;-53
2023/09/05 12:17:26;;;;;;;4.25;3.70;;;24.80;62.80;;;;;;5010580;28;20033;-53
2023/09/05 12:19:54;;;;;;;4.55;3.28;;;24.80;62.60;;;;;;5011103;28;20028;-50
2023/09/05 12:22:21;;;;;;;3.65;3.10;;;24.80;62.20;;;;;;5009712;28;20029;-53
2023/09/05 12:24:46;;;;;;;3.97;3.35;;;24.80;61.50;;;;;;5004703;28;20033;-55
2023/09/05 12:27:25;;;;;;;4.32;3.13;;;24.80;61.60;;;;;;5005402;28;20482;-54
2023/09/05 12:29:55;;;;;;;3.72;3.03;;;24.80;61.80;;;;;;5006778;28;20492;-53
2023/09/05 12:32:26;;;;;;;3.90;3.38;;;24.80;62.10;;;;;;5005789;28;20026;-55
2023/09/05 12:34:55;;;;;;;4.95;3.70;;;24.80;61.60;;;;;;5011587;28;20065;-55
2023/09/05 12:37:20;;;;;;;3.78;3.17;;;24.80;61.40;;;;;;5007778;28;20033;-53
2023/09/05 12:39:46;;;;;;;5.57;3.50;;;24.70;61.30;;;;;;5008438;28;20030;-53
2023/09/05 12:42:12;;;;;;;4.93;3.03;;;24.70;61.00;;;;;;5006350;28;20034;-54
2023/09/05 12:44:38;;;;;;;3.60;2.90;;;24.70;60.80;;;;;;5010173;28;20373;-54
2023/09/05 12:47:04;;;;;;;5.78;3.80;;;24.60;60.90;;;;;;5000460;28;20359;-54
2023/09/05 12:49:32;;;;;;;3.80;3.40;;;24.60;60.70;;;;;;5011255;28;20030;-55
2023/09/05 12:51:58;;;;;;;4.18;3.15;;;24.60;60.60;;;;;;5011857;28;20431;-54